Time;durP1;ratioP1;P1;durP2;ratioP2;P2;SDS_P1;SDS_P2;PMS_P1;PMS_P2;Temp;Humidity;BMP_temperature;BMP_pressure;BME280_temperature;BME280_humidity;BME280_pressure;Samples;Min_cycle;Max_cycle;Signal;HPM_P1;HPM_P2
2022/05/07 00:00:26;;;;;;;7.67;6.70;;;12.60;99.90;;;;;;5072875;28;20554;-71
2022/05/07 00:02:51;;;;;;;8.90;7.20;;;12.60;99.90;;;;;;5073074;28;20204;-72
2022/05/07 00:05:19;;;;;;;7.17;6.40;;;12.50;99.90;;;;;;5072982;28;20169;-72
2022/05/07 00:07:45;;;;;;;6.10;5.60;;;12.60;99.90;;;;;;5072616;28;20198;-72
2022/05/07 00:10:11;;;;;;;6.80;6.20;;;12.50;99.90;;;;;;5072738;28;20403;-72
2022/05/07 00:12:36;;;;;;;7.53;6.30;;;12.50;99.90;;;;;;5072918;28;20772;-72
2022/05/07 00:15:02;;;;;;;7.47;6.70;;;12.40;99.90;;;;;;5072061;28;20190;-71
2022/05/07 00:20:12;;;;;;;8.10;7.30;;;12.30;99.90;;;;;;5072895;28;20475;-71
2022/05/07 00:22:38;;;;;;;6.37;5.70;;;12.30;99.90;;;;;;5072275;28;20492;-72
2022/05/07 00:25:03;;;;;;;8.07;7.27;;;12.40;99.90;;;;;;5072875;28;20173;-72
2022/05/07 00:27:29;;;;;;;6.63;6.03;;;12.30;99.90;;;;;;5072601;28;20715;-73
2022/05/07 00:29:55;;;;;;;7.83;6.53;;;12.20;99.90;;;;;;5072920;28;20176;-72
2022/05/07 00:32:20;;;;;;;7.90;6.60;;;12.20;99.90;;;;;;5072604;28;20652;-72
2022/05/07 00:34:46;;;;;;;7.60;6.87;;;12.20;99.90;;;;;;5072860;28;20198;-73
2022/05/07 00:37:11;;;;;;;7.20;6.50;;;12.20;99.90;;;;;;5072713;28;20247;-73
2022/05/07 00:39:37;;;;;;;6.80;6.20;;;12.10;99.90;;;;;;5072525;28;20174;-72
2022/05/07 00:42:07;;;;;;;7.03;6.43;;;12.20;99.90;;;;;;5072583;28;20262;-72
2022/05/07 00:44:34;;;;;;;8.57;7.07;;;12.20;99.90;;;;;;5072569;28;20188;-72
2022/05/07 00:47:11;;;;;;;8.57;7.67;;;12.20;99.90;;;;;;5072032;28;20451;-71
2022/05/07 00:49:37;;;;;;;8.37;7.50;;;12.20;99.90;;;;;;5072484;28;20408;-71
2022/05/07 00:52:03;;;;;;;10.47;8.37;;;12.00;99.90;;;;;;5071795;28;20932;-72
2022/05/07 00:54:28;;;;;;;8.53;7.47;;;12.00;99.90;;;;;;5071962;28;20665;-72
2022/05/07 00:56:54;;;;;;;8.87;7.67;;;12.00;99.90;;;;;;5072063;28;20431;-72
2022/05/07 00:59:20;;;;;;;7.80;7.10;;;12.00;99.90;;;;;;5072576;28;20246;-72
2022/05/07 01:01:46;;;;;;;7.80;7.10;;;11.90;99.90;;;;;;5072147;28;20497;-72
2022/05/07 01:04:11;;;;;;;7.80;7.10;;;11.90;99.90;;;;;;5072492;28;20167;-72
2022/05/07 01:06:38;;;;;;;8.80;7.70;;;12.00;99.90;;;;;;5072001;28;20625;-72
2022/05/07 01:09:04;;;;;;;7.60;7.00;;;11.90;99.90;;;;;;5072021;28;20177;-72
2022/05/07 01:11:31;;;;;;;8.90;8.00;;;12.00;99.90;;;;;;5054038;28;20410;-72
2022/05/07 01:13:57;;;;;;;8.00;7.30;;;11.90;99.90;;;;;;5071882;28;20478;-72
2022/05/07 01:16:24;;;;;;;8.03;7.03;;;11.80;99.90;;;;;;5072272;28;20485;-71
2022/05/07 01:18:49;;;;;;;11.80;8.90;;;11.80;99.90;;;;;;5072096;28;20818;-72
2022/05/07 01:21:17;;;;;;;9.10;8.20;;;11.80;99.90;;;;;;5072107;28;20292;-72
2022/05/07 01:23:44;;;;;;;7.90;7.10;;;11.80;99.90;;;;;;5072227;28;20178;-72
2022/05/07 01:26:11;;;;;;;8.57;7.70;;;11.90;99.90;;;;;;5073282;28;20465;-71
2022/05/07 01:28:37;;;;;;;9.43;8.63;;;11.90;99.90;;;;;;5075486;28;20421;-73
2022/05/07 01:31:04;;;;;;;9.90;8.90;;;11.80;99.90;;;;;;5075725;28;20968;-72
2022/05/07 01:33:33;;;;;;;9.90;8.33;;;11.70;99.90;;;;;;5075806;28;21016;-72
2022/05/07 01:36:02;;;;;;;7.97;7.30;;;11.70;99.90;;;;;;5057381;28;20437;-72
2022/05/07 01:38:29;;;;;;;7.87;7.07;;;11.70;99.90;;;;;;5064176;28;20408;-72
2022/05/07 01:40:55;;;;;;;9.33;8.53;;;11.60;99.90;;;;;;5017587;28;20497;-72
2022/05/07 01:43:20;;;;;;;9.77;7.73;;;11.60;99.90;;;;;;5035690;28;20843;-72
2022/05/07 01:45:46;;;;;;;7.53;6.77;;;11.50;99.90;;;;;;5035464;28;20182;-72
2022/05/07 01:48:11;;;;;;;8.23;7.53;;;11.50;99.90;;;;;;5035660;28;20559;-72
2022/05/07 01:50:39;;;;;;;9.20;8.40;;;11.50;99.90;;;;;;5037265;28;20217;-73
2022/05/07 01:53:07;;;;;;;8.23;7.30;;;11.60;99.90;;;;;;5074846;28;20171;-72
2022/05/07 01:55:33;;;;;;;7.80;7.17;;;11.70;99.90;;;;;;5075170;28;20425;-72
2022/05/07 01:57:59;;;;;;;9.20;8.27;;;11.60;99.90;;;;;;5075048;28;20417;-73
2022/05/07 02:00:25;;;;;;;8.60;7.80;;;11.60;99.90;;;;;;5075076;28;20414;-72
2022/05/07 02:02:51;;;;;;;9.30;7.90;;;11.50;99.90;;;;;;5074988;28;20410;-73
2022/05/07 02:05:17;;;;;;;9.27;7.90;;;11.40;99.90;;;;;;5074968;28;20411;-72
2022/05/07 02:07:42;;;;;;;7.90;7.30;;;11.40;99.90;;;;;;5074621;28;20190;-72
2022/05/07 02:10:08;;;;;;;9.30;7.33;;;11.50;99.90;;;;;;5074867;28;20212;-73
2022/05/07 02:12:34;;;;;;;9.30;8.40;;;11.50;99.90;;;;;;5056771;28;20177;-72
2022/05/07 02:15:00;;;;;;;11.40;9.10;;;11.50;99.90;;;;;;5074694;28;20451;-72
2022/05/07 02:17:25;;;;;;;9.10;8.23;;;11.40;99.90;;;;;;5074645;28;20595;-72
2022/05/07 02:19:51;;;;;;;7.70;7.00;;;11.40;99.90;;;;;;5058575;28;20182;-72
2022/05/07 02:22:16;;;;;;;8.60;7.80;;;11.30;99.90;;;;;;5050492;28;20185;-71
2022/05/07 02:24:42;;;;;;;9.17;8.37;;;11.20;99.90;;;;;;5054840;28;20179;-72
2022/05/07 02:27:08;;;;;;;7.87;7.17;;;11.10;99.90;;;;;;5054370;28;20190;-71
2022/05/07 02:29:34;;;;;;;10.20;9.17;;;11.20;99.90;;;;;;5054502;28;20191;-72
2022/05/07 02:32:06;;;;;;;9.43;8.40;;;11.20;99.90;;;;;;5054413;28;20170;-71
2022/05/07 02:34:36;;;;;;;8.97;8.10;;;11.20;99.90;;;;;;5053143;28;20552;-72
2022/05/07 02:37:03;;;;;;;9.53;8.10;;;11.20;99.90;;;;;;5054630;28;20957;-72
2022/05/07 02:39:29;;;;;;;8.00;6.67;;;11.20;99.90;;;;;;5053787;28;20494;-71
2022/05/07 02:44:39;;;;;;;10.40;7.80;;;11.10;99.90;;;;;;5054168;28;20387;-72
2022/05/07 02:47:05;;;;;;;9.10;8.30;;;11.00;99.90;;;;;;5079827;22;20859;-70
2022/05/07 02:49:32;;;;;;;8.37;7.30;;;11.10;99.90;;;;;;5053585;28;20181;-70
2022/05/07 02:51:57;;;;;;;8.80;8.00;;;11.00;99.90;;;;;;5054550;28;20407;-68
2022/05/07 02:54:23;;;;;;;8.07;7.37;;;11.00;99.90;;;;;;5054631;28;20440;-70
2022/05/07 02:56:48;;;;;;;9.70;7.20;;;11.00;99.90;;;;;;5036885;28;20198;-70
2022/05/07 02:59:14;;;;;;;8.00;7.20;;;11.00;99.90;;;;;;5053138;28;20175;-70
2022/05/07 03:01:42;;;;;;;9.00;7.47;;;11.00;99.90;;;;;;5054515;28;20171;-70
2022/05/07 03:04:09;;;;;;;8.47;7.50;;;11.00;99.90;;;;;;5054389;28;20169;-70
2022/05/07 03:06:35;;;;;;;9.00;8.10;;;11.00;99.90;;;;;;5054479;28;20409;-70
2022/05/07 03:09:02;;;;;;;8.23;7.43;;;11.00;99.90;;;;;;5054769;28;20904;-69
2022/05/07 03:11:28;;;;;;;8.53;7.70;;;11.10;99.90;;;;;;5053759;28;20409;-70
2022/05/07 03:13:53;;;;;;;10.60;9.20;;;11.00;99.90;;;;;;5053298;28;20458;-70
2022/05/07 03:16:19;;;;;;;9.60;8.60;;;11.00;99.90;;;;;;5054098;28;20173;-70
2022/05/07 03:18:44;;;;;;;8.30;6.90;;;10.90;99.90;;;;;;5054184;28;20172;-70
2022/05/07 03:21:10;;;;;;;9.23;7.97;;;10.90;99.90;;;;;;5054008;28;20163;-69
2022/05/07 03:23:36;;;;;;;11.00;8.70;;;10.90;99.90;;;;;;5052761;28;20178;-70
2022/05/07 03:26:02;;;;;;;10.10;9.07;;;10.90;99.90;;;;;;5053866;28;20405;-69
2022/05/07 03:28:27;;;;;;;9.83;8.83;;;10.90;99.90;;;;;;5054718;28;20171;-70
2022/05/07 03:30:53;;;;;;;8.77;7.70;;;10.90;99.90;;;;;;5054304;28;20633;-69
2022/05/07 03:33:18;;;;;;;8.90;7.73;;;10.90;99.90;;;;;;5055021;28;20609;-70
2022/05/07 03:35:44;;;;;;;8.63;7.77;;;10.90;99.90;;;;;;5055787;28;20175;-70
2022/05/07 03:38:10;;;;;;;8.87;8.07;;;10.80;99.90;;;;;;5055967;28;20764;-69
2022/05/07 03:40:36;;;;;;;8.87;8.07;;;10.80;99.90;;;;;;5055131;28;20168;-71
2022/05/07 03:43:03;;;;;;;10.43;8.20;;;10.70;99.90;;;;;;5031413;28;20406;-70
2022/05/07 03:45:30;;;;;;;9.80;8.90;;;10.80;99.90;;;;;;5016003;28;20415;-70
2022/05/07 03:47:56;;;;;;;10.03;9.13;;;10.80;99.90;;;;;;5033610;28;20466;-71
2022/05/07 03:50:22;;;;;;;10.27;9.17;;;10.90;99.90;;;;;;5032820;28;20417;-70
2022/05/07 03:55:31;;;;;;;9.83;8.77;;;10.70;99.90;;;;;;5049377;28;20183;-70
2022/05/07 03:57:57;;;;;;;11.30;9.00;;;10.60;99.90;;;;;;5053306;28;20424;-70
2022/05/07 04:00:22;;;;;;;10.30;9.30;;;10.60;99.90;;;;;;5052655;28;20546;-69
2022/05/07 04:02:48;;;;;;;10.40;9.40;;;10.60;99.90;;;;;;5035637;28;20205;-70
2022/05/07 04:05:14;;;;;;;8.87;7.97;;;10.60;99.90;;;;;;5053966;28;20185;-70
2022/05/07 04:07:40;;;;;;;9.90;8.90;;;10.70;99.90;;;;;;5053591;28;20194;-70
2022/05/07 04:10:06;;;;;;;10.53;8.60;;;10.70;99.90;;;;;;5053543;28;20171;-69
2022/05/07 04:12:32;;;;;;;10.50;9.60;;;10.70;99.90;;;;;;5052240;28;20429;-70
2022/05/07 04:14:59;;;;;;;9.70;8.23;;;10.60;99.90;;;;;;5053442;28;20808;-70
2022/05/07 04:17:25;;;;;;;8.63;7.73;;;10.60;99.90;;;;;;5053422;28;20190;-70
2022/05/07 04:19:51;;;;;;;11.37;10.23;;;10.60;99.90;;;;;;5052556;28;20421;-71
2022/05/07 04:22:17;;;;;;;8.60;7.73;;;10.70;99.90;;;;;;5037623;28;20440;-70
2022/05/07 04:24:43;;;;;;;10.40;9.27;;;10.70;99.90;;;;;;5054205;28;20179;-70
2022/05/07 04:27:09;;;;;;;10.40;9.40;;;10.80;99.90;;;;;;5035903;28;20689;-72
2022/05/07 04:29:34;;;;;;;9.20;8.43;;;10.70;99.90;;;;;;5054275;28;20413;-72
2022/05/07 04:32:00;;;;;;;12.87;9.70;;;10.80;99.90;;;;;;5054625;28;20254;-70
2022/05/07 04:34:28;;;;;;;9.50;8.30;;;10.70;99.90;;;;;;5053757;28;20198;-69
2022/05/07 04:36:54;;;;;;;9.10;8.30;;;10.70;99.90;;;;;;5053072;28;20279;-71
2022/05/07 04:39:20;;;;;;;9.77;8.80;;;10.80;99.90;;;;;;5053099;28;20485;-70
2022/05/07 04:41:46;;;;;;;9.90;9.00;;;10.80;99.90;;;;;;5051631;28;20417;-70
2022/05/07 04:44:12;;;;;;;10.03;8.87;;;10.80;99.90;;;;;;5052972;28;20459;-69
2022/05/07 04:46:39;;;;;;;12.57;11.37;;;10.90;99.90;;;;;;5039054;28;20268;-70
2022/05/07 04:49:05;;;;;;;11.80;10.60;;;10.90;99.90;;;;;;5024173;28;20414;-70
2022/05/07 04:51:31;;;;;;;14.63;11.57;;;10.90;99.90;;;;;;5024044;28;20421;-70
2022/05/07 04:53:57;;;;;;;11.33;10.20;;;10.90;99.90;;;;;;5023896;28;20464;-69
2022/05/07 04:56:24;;;;;;;11.37;10.20;;;11.00;99.90;;;;;;5023541;28;20606;-69
2022/05/07 04:58:51;;;;;;;11.70;10.27;;;11.00;99.90;;;;;;5024338;28;20183;-69
2022/05/07 05:01:16;;;;;;;10.00;9.10;;;11.00;99.90;;;;;;5025087;28;20409;-70
2022/05/07 05:03:42;;;;;;;9.50;8.70;;;11.00;99.90;;;;;;5028343;28;21550;-70
2022/05/07 05:06:08;;;;;;;10.60;9.57;;;11.00;99.90;;;;;;5027884;28;20187;-69
2022/05/07 05:08:34;;;;;;;11.10;9.83;;;11.00;99.90;;;;;;5027882;28;20272;-70
2022/05/07 05:10:59;;;;;;;8.67;7.90;;;11.00;99.90;;;;;;5027363;28;21100;-70
2022/05/07 05:13:25;;;;;;;10.63;8.43;;;11.00;99.90;;;;;;5027845;28;20226;-70
2022/05/07 05:15:50;;;;;;;8.97;8.17;;;11.10;99.90;;;;;;5027906;28;20183;-70
2022/05/07 05:18:16;;;;;;;9.43;8.50;;;11.20;99.90;;;;;;5027535;28;20279;-69
2022/05/07 05:20:42;;;;;;;9.33;8.43;;;11.20;99.90;;;;;;5027709;28;20629;-70
2022/05/07 05:23:08;;;;;;;9.93;8.33;;;11.30;99.90;;;;;;5027356;28;20266;-70
2022/05/07 05:25:34;;;;;;;9.00;8.10;;;11.40;99.90;;;;;;5027706;28;21350;-70
2022/05/07 05:28:00;;;;;;;7.60;6.90;;;11.50;99.90;;;;;;5027663;28;20481;-71
2022/05/07 05:30:26;;;;;;;8.83;7.90;;;11.60;99.90;;;;;;5032600;28;20190;-69
2022/05/07 05:32:51;;;;;;;9.50;8.47;;;11.80;99.90;;;;;;5036356;28;20168;-69
2022/05/07 05:35:17;;;;;;;8.03;7.33;;;11.90;99.90;;;;;;5036161;28;20491;-69
2022/05/07 05:37:43;;;;;;;7.80;7.00;;;11.90;99.90;;;;;;5038204;28;20194;-69
2022/05/07 05:40:08;;;;;;;8.50;7.70;;;12.00;99.90;;;;;;5029018;28;20179;-69
2022/05/07 05:42:34;;;;;;;10.17;9.20;;;12.10;99.90;;;;;;5055325;28;20214;-70
2022/05/07 05:44:59;;;;;;;8.67;7.97;;;12.20;99.90;;;;;;5047872;28;20177;-69
2022/05/07 05:47:25;;;;;;;9.73;8.73;;;12.30;99.90;;;;;;5035886;28;20545;-69
2022/05/07 05:49:52;;;;;;;8.57;7.77;;;12.40;99.90;;;;;;5036184;28;20171;-69
2022/05/07 05:52:17;;;;;;;8.60;7.87;;;12.50;99.90;;;;;;5035964;28;20173;-70
2022/05/07 05:54:43;;;;;;;10.00;9.10;;;12.60;99.90;;;;;;5035778;28;20861;-69
2022/05/07 05:57:09;;;;;;;9.37;8.50;;;12.70;99.90;;;;;;5035555;28;20183;-68
2022/05/07 05:59:34;;;;;;;9.67;8.80;;;12.80;99.90;;;;;;5036384;28;20164;-69
2022/05/07 06:02:00;;;;;;;10.07;9.07;;;12.90;99.90;;;;;;5035835;28;20164;-69
2022/05/07 06:04:25;;;;;;;10.33;9.07;;;13.00;99.90;;;;;;5035564;28;20167;-69
2022/05/07 06:06:51;;;;;;;9.17;8.37;;;13.10;99.90;;;;;;5035871;28;20204;-69
2022/05/07 06:09:17;;;;;;;9.90;8.57;;;13.20;99.90;;;;;;5035954;28;20180;-69
2022/05/07 06:11:42;;;;;;;10.20;9.17;;;13.30;99.90;;;;;;5049913;28;20224;-69
2022/05/07 06:14:08;;;;;;;9.40;8.43;;;13.40;99.90;;;;;;5054650;28;20221;-69
2022/05/07 06:16:34;;;;;;;8.83;8.03;;;13.50;99.90;;;;;;5055526;28;20270;-69
2022/05/07 06:18:59;;;;;;;9.73;8.73;;;13.60;99.90;;;;;;5055775;28;20193;-69
2022/05/07 06:21:26;;;;;;;9.70;8.70;;;13.70;99.90;;;;;;5055594;28;20202;-70
2022/05/07 06:23:52;;;;;;;8.90;8.10;;;13.80;99.90;;;;;;5037352;28;20170;-70
2022/05/07 06:29:02;;;;;;;11.60;10.40;;;14.10;99.90;;;;;;5055514;28;20213;-69
2022/05/07 06:31:30;;;;;;;10.57;9.60;;;14.20;99.90;;;;;;5055177;28;20913;-69
2022/05/07 06:33:55;;;;;;;10.60;9.60;;;14.30;99.90;;;;;;5055071;28;20204;-69
2022/05/07 06:36:21;;;;;;;11.47;10.13;;;14.30;99.90;;;;;;5054930;28;21134;-70
2022/05/07 06:38:46;;;;;;;12.70;11.50;;;14.40;99.90;;;;;;5054999;28;20178;-69
2022/05/07 06:41:12;;;;;;;10.77;9.80;;;14.50;99.90;;;;;;5054648;28;20598;-69
2022/05/07 06:43:38;;;;;;;17.40;12.73;;;14.60;99.90;;;;;;5055476;28;20196;-69
2022/05/07 06:46:04;;;;;;;13.50;12.20;;;14.70;99.90;;;;;;5054630;28;20178;-69
2022/05/07 06:48:30;;;;;;;13.40;12.10;;;14.50;99.90;;;;;;5054749;28;20417;-70
2022/05/07 06:50:56;;;;;;;14.27;12.97;;;14.10;99.90;;;;;;5054707;28;20784;-69
2022/05/07 06:53:22;;;;;;;13.57;12.37;;;13.80;99.90;;;;;;5054462;28;20174;-69
2022/05/07 06:55:59;;;;;;;13.83;12.53;;;13.60;99.90;;;;;;5054549;28;20164;-69
2022/05/07 06:58:33;;;;;;;14.97;13.63;;;13.70;99.90;;;;;;5054568;28;20558;-69
2022/05/07 07:01:01;;;;;;;16.77;14.90;;;13.80;99.90;;;;;;5054721;28;20394;-69
2022/05/07 07:03:27;;;;;;;18.87;17.27;;;13.90;99.90;;;;;;5054575;28;20412;-70
2022/05/07 07:05:53;;;;;;;14.40;13.00;;;14.00;99.90;;;;;;5036428;28;20412;-69
2022/05/07 07:08:19;;;;;;;16.40;14.80;;;14.20;99.90;;;;;;5054358;28;20420;-69
2022/05/07 07:10:45;;;;;;;14.20;13.00;;;14.20;99.90;;;;;;5036187;28;20419;-70
2022/05/07 07:13:11;;;;;;;14.83;13.10;;;14.00;99.90;;;;;;5054352;28;20303;-69
2022/05/07 07:15:39;;;;;;;14.57;13.10;;;13.90;99.90;;;;;;5045247;28;20170;-69
2022/05/07 07:18:09;;;;;;;15.20;13.80;;;14.10;99.90;;;;;;5026948;28;20451;-69
2022/05/07 07:20:41;;;;;;;15.03;13.63;;;14.10;99.90;;;;;;5026352;28;20411;-70
2022/05/07 07:23:11;;;;;;;14.80;13.50;;;14.30;99.90;;;;;;5033895;28;20430;-69
2022/05/07 07:25:41;;;;;;;15.60;14.20;;;14.40;99.90;;;;;;5034099;28;20416;-69
2022/05/07 07:28:08;;;;;;;14.83;13.33;;;14.30;99.90;;;;;;5016638;28;20472;-69
2022/05/07 07:30:33;;;;;;;16.27;13.33;;;14.50;99.90;;;;;;5034288;28;20408;-69
2022/05/07 07:32:59;;;;;;;17.13;14.27;;;14.60;99.90;;;;;;5034839;28;20405;-70
2022/05/07 07:35:25;;;;;;;13.60;12.30;;;14.70;99.90;;;;;;5034154;28;20206;-69
2022/05/07 07:37:51;;;;;;;13.77;12.40;;;14.80;99.90;;;;;;5015643;28;20950;-70
2022/05/07 07:40:16;;;;;;;15.00;13.37;;;15.10;99.90;;;;;;5031802;28;20171;-69
2022/05/07 07:42:42;;;;;;;13.60;12.30;;;14.90;99.90;;;;;;5034135;28;20655;-69
2022/05/07 07:47:57;;;;;;;13.50;12.20;;;15.00;99.90;;;;;;5035437;28;20262;-70
2022/05/07 07:50:30;;;;;;;12.00;10.80;;;15.20;99.90;;;;;;5034662;28;20786;-69
2022/05/07 07:52:56;;;;;;;12.73;11.53;;;15.20;99.90;;;;;;5053780;28;20513;-69
2022/05/07 07:55:22;;;;;;;12.30;11.30;;;15.40;99.90;;;;;;5056327;28;20480;-70
2022/05/07 07:57:49;;;;;;;12.30;11.10;;;15.40;99.90;;;;;;5054625;28;20995;-70
2022/05/07 08:00:16;;;;;;;11.00;10.03;;;15.30;99.90;;;;;;5055439;28;20203;-69
2022/05/07 08:02:53;;;;;;;12.43;11.13;;;15.40;99.90;;;;;;5055782;28;20919;-69
2022/05/07 08:05:23;;;;;;;15.43;10.80;;;15.60;99.90;;;;;;5054452;28;20468;-69
2022/05/07 08:13:17;;;;;;;11.60;10.50;;;16.00;99.90;;;;;;5053528;28;20388;-69
2022/05/07 08:15:42;;;;;;;12.40;11.20;;;16.10;99.90;;;;;;5053366;28;20411;-69
2022/05/07 08:18:08;;;;;;;12.37;11.23;;;16.20;99.90;;;;;;5053068;28;20196;-69
2022/05/07 08:20:34;;;;;;;13.10;11.90;;;16.20;99.90;;;;;;5053850;28;20227;-69
2022/05/07 08:22:59;;;;;;;15.27;12.70;;;16.30;99.90;;;;;;5035328;28;20179;-69
2022/05/07 08:25:25;;;;;;;12.07;10.87;;;16.20;99.90;;;;;;5053522;28;20182;-69
2022/05/07 08:27:51;;;;;;;12.83;11.63;;;16.30;99.90;;;;;;5051988;28;20292;-69
2022/05/07 08:30:17;;;;;;;13.60;12.27;;;16.30;99.90;;;;;;5035234;28;20167;-70
2022/05/07 08:32:42;;;;;;;13.40;12.20;;;16.40;99.90;;;;;;5052957;28;20541;-69
2022/05/07 08:35:08;;;;;;;15.50;12.47;;;16.50;99.90;;;;;;5035040;28;20291;-69
2022/05/07 08:37:34;;;;;;;13.80;12.37;;;16.50;99.90;;;;;;5057141;28;20201;-68
2022/05/07 08:40:01;;;;;;;15.43;13.90;;;16.80;99.90;;;;;;5039292;28;20243;-69
2022/05/07 08:42:30;;;;;;;15.20;13.80;;;17.00;99.90;;;;;;5056622;28;20239;-69
2022/05/07 08:44:57;;;;;;;15.43;14.03;;;17.10;99.90;;;;;;5056948;28;20409;-69
2022/05/07 08:47:23;;;;;;;16.53;14.90;;;17.00;99.90;;;;;;5075505;22;20483;-72
2022/05/07 08:49:52;;;;;;;16.03;14.63;;;17.10;99.90;;;;;;5074273;28;20990;-71
2022/05/07 08:52:19;;;;;;;16.17;14.67;;;17.50;99.90;;;;;;5074161;28;20937;-72
2022/05/07 08:54:45;;;;;;;16.57;14.97;;;17.80;99.90;;;;;;5074227;28;20448;-72
2022/05/07 08:57:12;;;;;;;16.20;14.67;;;17.60;99.90;;;;;;5075442;28;20928;-72
2022/05/07 08:59:38;;;;;;;14.53;13.23;;;17.60;99.90;;;;;;5075829;28;20400;-72
2022/05/07 09:02:04;;;;;;;14.63;13.23;;;17.80;99.90;;;;;;5073387;28;20408;-72
2022/05/07 09:04:30;;;;;;;15.73;14.20;;;18.00;99.90;;;;;;5075529;28;20851;-72
2022/05/07 09:06:57;;;;;;;15.87;13.80;;;17.80;99.90;;;;;;5075932;28;20428;-72
2022/05/07 09:09:23;;;;;;;14.10;12.67;;;17.70;99.90;;;;;;5073936;28;20288;-73
2022/05/07 09:11:49;;;;;;;16.20;14.70;;;17.80;99.90;;;;;;5075847;28;20431;-72
2022/05/07 09:14:18;;;;;;;14.83;13.40;;;17.80;99.90;;;;;;5057927;28;20201;-72
2022/05/07 09:16:50;;;;;;;15.60;14.10;;;18.00;99.90;;;;;;5074256;28;20237;-73
2022/05/07 09:19:33;;;;;;;14.67;13.17;;;18.10;99.90;;;;;;5076341;28;20406;-72
2022/05/07 09:22:07;;;;;;;12.70;11.43;;;18.30;99.90;;;;;;5075881;28;20376;-72
2022/05/07 09:24:32;;;;;;;16.67;12.03;;;18.40;99.90;;;;;;5075886;28;20442;-72
2022/05/07 09:26:58;;;;;;;11.97;10.83;;;18.20;99.90;;;;;;5057808;28;20435;-72
2022/05/07 09:29:27;;;;;;;11.33;10.23;;;18.40;99.90;;;;;;5065880;28;20194;-73
2022/05/07 09:31:53;;;;;;;11.33;9.57;;;18.40;99.90;;;;;;5070075;28;20284;-73
2022/05/07 09:37:18;;;;;;;7.47;6.87;;;18.50;99.90;;;;;;5075608;28;20271;-73
2022/05/07 09:39:51;;;;;;;10.47;9.50;;;18.80;99.90;;;;;;5076005;28;20947;-73
2022/05/07 09:42:22;;;;;;;8.87;7.97;;;18.90;99.90;;;;;;5057564;28;20460;-72
2022/05/07 09:44:48;;;;;;;6.50;5.90;;;19.00;99.90;;;;;;5075591;28;20404;-73
2022/05/07 09:47:14;;;;;;;6.80;6.10;;;18.80;99.40;;;;;;5075190;28;20442;-73
2022/05/07 09:52:30;;;;;;;5.03;4.10;;;18.70;98.90;;;;;;5075756;28;20392;-73
2022/05/07 09:57:41;;;;;;;5.07;3.87;;;19.10;96.40;;;;;;5075825;28;20465;-73
2022/05/07 10:00:13;;;;;;;5.70;4.00;;;19.40;96.30;;;;;;5075635;28;20407;-74
2022/05/07 10:02:59;;;;;;;3.43;3.10;;;19.60;95.70;;;;;;5057219;28;20491;-73
2022/05/07 10:05:34;;;;;;;4.20;3.33;;;19.90;95.10;;;;;;5077262;28;20388;-71
2022/05/07 10:08:21;;;;;;;3.70;2.73;;;19.90;94.10;;;;;;5085149;28;20472;-73
2022/05/07 10:10:50;;;;;;;7.23;2.63;;;19.70;93.20;;;;;;5056142;28;20421;-73
2022/05/07 10:13:17;;;;;;;3.03;2.77;;;19.40;91.10;;;;;;5062560;28;20417;-73
2022/05/07 10:15:44;;;;;;;3.87;2.80;;;19.60;92.20;;;;;;5057162;28;20488;-73
2022/05/07 10:18:16;;;;;;;3.60;3.30;;;19.80;93.30;;;;;;5054814;28;20425;-72
2022/05/07 10:20:47;;;;;;;4.93;3.43;;;20.00;92.40;;;;;;5055016;28;20426;-73
2022/05/07 10:23:14;;;;;;;3.30;2.93;;;19.70;93.00;;;;;;5054281;28;20436;-73
2022/05/07 10:25:45;;;;;;;3.20;2.93;;;19.70;93.10;;;;;;5055125;28;20784;-72
2022/05/07 10:28:14;;;;;;;3.40;2.67;;;19.80;91.20;;;;;;5054525;28;20842;-73
2022/05/07 10:30:54;;;;;;;4.13;3.73;;;20.10;90.90;;;;;;5060634;28;20462;-72
2022/05/07 10:33:21;;;;;;;3.50;2.67;;;20.20;90.60;;;;;;5074621;28;20423;-72
2022/05/07 10:35:49;;;;;;;3.87;2.47;;;20.40;90.00;;;;;;5074604;28;20400;-73
2022/05/07 10:38:24;;;;;;;3.70;3.30;;;20.70;90.00;;;;;;5073838;28;20416;-73
2022/05/07 10:40:51;;;;;;;3.90;2.80;;;20.60;89.50;;;;;;5074448;28;20388;-73
2022/05/07 10:43:55;;;;;;;3.80;3.50;;;20.80;89.30;;;;;;5074497;28;20416;-73
2022/05/07 10:46:22;;;;;;;5.33;4.03;;;20.80;90.60;;;;;;4992951;28;20420;-72
2022/05/07 10:48:53;;;;;;;4.07;3.60;;;20.30;91.40;;;;;;5042239;28;21018;-73
2022/05/07 10:51:39;;;;;;;5.10;4.30;;;20.50;93.00;;;;;;5074527;28;20438;-76
2022/05/07 10:54:27;;;;;;;4.60;4.20;;;20.90;91.60;;;;;;5072247;28;20444;-73
2022/05/07 10:56:57;;;;;;;7.60;4.10;;;21.70;91.30;;;;;;5063518;28;20424;-72
2022/05/07 10:59:25;;;;;;;5.00;4.50;;;22.10;91.00;;;;;;5072265;28;20416;-72
2022/05/07 11:01:50;;;;;;;5.50;4.10;;;21.50;90.40;;;;;;5073994;28;20399;-72
2022/05/07 11:04:21;;;;;;;4.90;4.43;;;21.40;90.90;;;;;;5072758;28;20491;-73
2022/05/07 11:06:50;;;;;;;7.67;5.90;;;21.40;91.00;;;;;;5073448;28;20154;-72
2022/05/07 11:09:22;;;;;;;5.13;4.40;;;21.10;91.10;;;;;;5074343;28;20408;-72
2022/05/07 11:11:54;;;;;;;4.90;3.97;;;20.60;92.00;;;;;;5073906;28;20381;-72
2022/05/07 11:14:28;;;;;;;4.90;3.50;;;21.00;91.50;;;;;;5073802;28;20464;-72
2022/05/07 11:16:55;;;;;;;4.33;3.97;;;22.60;90.30;;;;;;5073942;28;20427;-73
2022/05/07 11:19:37;;;;;;;5.67;3.70;;;23.40;85.20;;;;;;5073804;28;20416;-73
2022/05/07 11:22:08;;;;;;;4.60;3.70;;;23.60;82.60;;;;;;5073749;28;20380;-74
2022/05/07 11:24:34;;;;;;;5.47;3.50;;;24.30;81.50;;;;;;5073786;28;20479;-72
2022/05/07 11:27:06;;;;;;;5.00;3.00;;;25.60;77.60;;;;;;5072990;28;20428;-73
2022/05/07 11:29:33;;;;;;;3.70;3.40;;;26.40;71.90;;;;;;5073447;28;20384;-72
2022/05/07 11:32:01;;;;;;;4.80;3.10;;;25.00;72.20;;;;;;5073079;28;20404;-72
2022/05/07 11:34:34;;;;;;;4.53;3.17;;;24.20;76.70;;;;;;5041018;28;20533;-72
2022/05/07 11:37:23;;;;;;;3.17;2.87;;;25.10;72.10;;;;;;5073080;28;20519;-72
2022/05/07 11:39:56;;;;;;;2.93;2.50;;;24.00;68.90;;;;;;5073238;28;20384;-72
2022/05/07 11:42:36;;;;;;;2.50;2.30;;;24.00;70.20;;;;;;5071813;28;20381;-72
2022/05/07 11:45:26;;;;;;;2.70;2.50;;;25.60;67.90;;;;;;5073092;28;20399;-72
2022/05/07 11:47:58;;;;;;;3.97;2.73;;;26.10;65.20;;;;;;5072618;28;20448;-72
2022/05/07 11:50:29;;;;;;;3.53;2.70;;;25.10;65.70;;;;;;5072715;28;20908;-72
2022/05/07 11:52:55;;;;;;;4.70;2.83;;;25.40;67.50;;;;;;5072735;28;20446;-72
2022/05/07 11:55:29;;;;;;;2.77;2.47;;;24.50;67.70;;;;;;5073030;28;20455;-72
2022/05/07 11:57:55;;;;;;;3.50;2.53;;;24.80;67.20;;;;;;5053648;28;20925;-72
2022/05/07 12:00:26;;;;;;;2.43;2.23;;;24.50;67.20;;;;;;5072626;28;20405;-72
2022/05/07 12:02:57;;;;;;;3.93;2.33;;;24.50;68.10;;;;;;5072733;28;20396;-71
2022/05/07 12:05:24;;;;;;;3.90;2.47;;;25.40;65.80;;;;;;5073008;28;20428;-72
2022/05/07 12:07:51;;;;;;;2.80;2.50;;;25.10;63.10;;;;;;5072562;28;20413;-72
2022/05/07 12:10:19;;;;;;;2.67;2.43;;;24.60;65.70;;;;;;5071762;28;20401;-72
2022/05/07 12:12:46;;;;;;;2.50;2.20;;;24.80;64.20;;;;;;5072587;28;20404;-72
2022/05/07 12:15:12;;;;;;;3.10;2.20;;;24.80;67.20;;;;;;5072781;28;20609;-72
2022/05/07 12:17:53;;;;;;;3.47;2.50;;;24.60;64.80;;;;;;5072317;28;20944;-72
2022/05/07 12:20:20;;;;;;;5.23;2.40;;;24.90;64.30;;;;;;5072430;28;20157;-73
2022/05/07 12:30:58;;;;;;;2.90;2.40;;;24.80;62.60;;;;;;5072615;28;20445;-72
2022/05/07 12:33:24;;;;;;;2.73;2.53;;;24.90;64.50;;;;;;5072343;28;20993;-72
2022/05/07 12:35:50;;;;;;;5.30;2.53;;;24.80;66.20;;;;;;5054267;28;20162;-72
2022/05/07 12:38:15;;;;;;;4.00;2.73;;;23.40;68.00;;;;;;5072416;28;20533;-72
2022/05/07 12:40:41;;;;;;;3.17;2.97;;;22.90;69.90;;;;;;5072619;28;20162;-72
2022/05/07 12:43:07;;;;;;;4.47;2.83;;;23.00;71.60;;;;;;5072388;28;20166;-72
2022/05/07 12:45:34;;;;;;;3.60;2.00;;;22.90;71.20;;;;;;5072332;28;20243;-72
2022/05/07 12:48:00;;;;;;;3.10;2.50;;;24.10;69.60;;;;;;5071934;28;20209;-72
2022/05/07 12:50:26;;;;;;;3.83;2.60;;;24.20;67.00;;;;;;5071879;28;20412;-72
2022/05/07 12:52:55;;;;;;;3.47;2.80;;;24.80;66.70;;;;;;5072200;28;20174;-72
2022/05/07 12:55:20;;;;;;;2.87;2.53;;;25.40;65.50;;;;;;5072535;28;20190;-72
2022/05/07 12:57:47;;;;;;;3.40;2.30;;;26.40;62.60;;;;;;5072233;28;20557;-72
2022/05/07 13:00:13;;;;;;;2.70;2.50;;;27.20;59.70;;;;;;5071015;28;20204;-72
2022/05/07 13:02:39;;;;;;;3.37;2.30;;;26.80;61.90;;;;;;5059491;28;20492;-72
2022/05/07 13:05:06;;;;;;;2.97;2.23;;;26.30;60.70;;;;;;5043214;28;20405;-72
2022/05/07 13:07:31;;;;;;;2.90;1.90;;;25.50;62.40;;;;;;5051878;28;20446;-72
2022/05/07 13:09:57;;;;;;;3.37;2.60;;;25.70;62.40;;;;;;5052021;28;20496;-72
2022/05/07 13:12:24;;;;;;;2.20;2.00;;;26.00;61.50;;;;;;5052218;28;20653;-72
2022/05/07 13:14:50;;;;;;;2.73;2.30;;;27.80;58.30;;;;;;5051757;28;20240;-72
2022/05/07 13:17:16;;;;;;;2.63;2.13;;;28.30;58.80;;;;;;5052321;28;20425;-73